Hardy, Kentucky
Current Conditions -  °F | °C
As of 7:15 PM on Thursday 27 Nov 2014 (Local Time) from KPBX Reporting Station
Overcast Overcast  
Wind Chill: 29°   Ceiling: 2300
Heat Index: 29°   Visibility: 10mi
Dew Point: 22°   Wind: 3mph
Humidity: 75%   Direction: 250°WSW
Pressure: 30.32"   Gusts: NA
Location:  37.62°N, 82.24°W
Report Text: KPBX 280015Z AUTO 25003KT 10SM BKN023 BKN031 OVC042 M01/M05 A3032 RMK AO2 T10141054
Loading
Personal Weather Stations






























Interactive Weather Map New forecast layout! Learn more

10-Day Weather Forecast

Advertisements
Track Severe Weather on mobile